Flat, Kentucky
Current Conditions -  °F | °C
As of 1:46 AM on Monday 24 Nov 2014 (Local Time) from KJKL Reporting Station
Overcast Overcast  
Wind Chill: 61°   Ceiling: 3600
Heat Index: 61°   Visibility: 10mi
Dew Point: 53°   Wind: 9mph
Humidity: 75%   Direction: 210°SSW
Pressure: 29.5"   Gusts: NA
Location:  37.7524°N, 83.5047°W
Report Text: KJKL 240646Z AUTO 21008KT 170V330 10SM SCT028 OVC036 16/12 A2950 RMK AO2 RAE0558B21E32 P0000 T01610117
Loading
Personal Weather Stations






























Interactive Weather Map New forecast layout! Learn more

10-Day Weather Forecast

Advertisements
Track Severe Weather on mobile